sensor_id;sensor_type;location;lat;lon;timestamp;P1;durP1;ratioP1;P2;durP2;ratioP2
4909;SDS011;2470;49.868;8.660;2022-12-18T00:01:40;26.33;;;8.43;;
4909;SDS011;2470;49.868;8.660;2022-12-18T00:04:06;24.73;;;8.27;;
4909;SDS011;2470;49.868;8.660;2022-12-18T00:06:39;27.20;;;6.57;;
4909;SDS011;2470;49.868;8.660;2022-12-18T00:09:05;15.13;;;7.63;;
4909;SDS011;2470;49.868;8.660;2022-12-18T00:11:30;15.00;;;8.10;;
4909;SDS011;2470;49.868;8.660;2022-12-18T00:13:57;15.33;;;8.03;;
4909;SDS011;2470;49.868;8.660;2022-12-18T00:16:24;41.77;;;9.07;;
4909;SDS011;2470;49.868;8.660;2022-12-18T00:18:52;20.23;;;8.73;;
4909;SDS011;2470;49.868;8.660;2022-12-18T00:21:19;18.77;;;5.30;;
4909;SDS011;2470;49.868;8.660;2022-12-18T00:23:46;11.77;;;6.20;;
4909;SDS011;2470;49.868;8.660;2022-12-18T00:26:15;15.70;;;7.47;;
4909;SDS011;2470;49.868;8.660;2022-12-18T00:28:43;14.53;;;8.37;;
4909;SDS011;2470;49.868;8.660;2022-12-18T00:31:10;5.83;;;4.40;;
4909;SDS011;2470;49.868;8.660;2022-12-18T00:33:39;21.57;;;8.93;;
4909;SDS011;2470;49.868;8.660;2022-12-18T00:36:27;18.83;;;7.07;;
4909;SDS011;2470;49.868;8.660;2022-12-18T00:38:53;23.23;;;7.17;;
4909;SDS011;2470;49.868;8.660;2022-12-18T00:41:20;13.43;;;7.60;;
4909;SDS011;2470;49.868;8.660;2022-12-18T00:44:09;12.50;;;6.80;;
4909;SDS011;2470;49.868;8.660;2022-12-18T00:46:37;23.37;;;8.60;;
4909;SDS011;2470;49.868;8.660;2022-12-18T00:49:03;14.13;;;8.37;;
4909;SDS011;2470;49.868;8.660;2022-12-18T00:51:28;6.00;;;5.40;;
4909;SDS011;2470;49.868;8.660;2022-12-18T00:53:54;20.10;;;7.90;;
4909;SDS011;2470;49.868;8.660;2022-12-18T00:56:21;7.80;;;6.03;;
4909;SDS011;2470;49.868;8.660;2022-12-18T00:58:47;15.90;;;6.87;;
4909;SDS011;2470;49.868;8.660;2022-12-18T01:01:12;17.07;;;9.70;;
4909;SDS011;2470;49.868;8.660;2022-12-18T01:03:38;15.13;;;9.07;;
4909;SDS011;2470;49.868;8.660;2022-12-18T01:06:08;16.70;;;6.73;;
4909;SDS011;2470;49.868;8.660;2022-12-18T01:08:35;14.60;;;7.80;;
4909;SDS011;2470;49.868;8.660;2022-12-18T01:11:06;6.03;;;5.53;;
4909;SDS011;2470;49.868;8.660;2022-12-18T01:13:33;8.93;;;6.70;;
4909;SDS011;2470;49.868;8.660;2022-12-18T01:15:58;8.87;;;5.67;;
4909;SDS011;2470;49.868;8.660;2022-12-18T01:18:24;18.17;;;8.07;;
4909;SDS011;2470;49.868;8.660;2022-12-18T01:20:49;12.50;;;6.13;;
4909;SDS011;2470;49.868;8.660;2022-12-18T01:23:15;11.03;;;7.40;;
4909;SDS011;2470;49.868;8.660;2022-12-18T01:25:40;16.73;;;7.27;;
4909;SDS011;2470;49.868;8.660;2022-12-18T01:28:06;17.73;;;8.23;;
4909;SDS011;2470;49.868;8.660;2022-12-18T01:30:31;14.87;;;6.93;;
4909;SDS011;2470;49.868;8.660;2022-12-18T01:32:57;9.80;;;6.07;;
4909;SDS011;2470;49.868;8.660;2022-12-18T01:35:22;18.80;;;9.30;;
4909;SDS011;2470;49.868;8.660;2022-12-18T01:37:48;19.10;;;10.20;;
4909;SDS011;2470;49.868;8.660;2022-12-18T01:40:13;14.80;;;7.90;;
4909;SDS011;2470;49.868;8.660;2022-12-18T01:42:39;26.60;;;9.70;;
4909;SDS011;2470;49.868;8.660;2022-12-18T01:47:41;15.00;;;7.23;;
4909;SDS011;2470;49.868;8.660;2022-12-18T01:52:55;13.43;;;7.53;;
4909;SDS011;2470;49.868;8.660;2022-12-18T01:55:26;24.13;;;8.47;;
4909;SDS011;2470;49.868;8.660;2022-12-18T01:57:55;21.10;;;10.57;;
4909;SDS011;2470;49.868;8.660;2022-12-18T02:00:23;10.43;;;6.97;;
4909;SDS011;2470;49.868;8.660;2022-12-18T02:02:51;14.63;;;7.30;;
4909;SDS011;2470;49.868;8.660;2022-12-18T02:11:07;11.50;;;8.27;;
4909;SDS011;2470;49.868;8.660;2022-12-18T02:16:43;29.97;;;11.10;;
4909;SDS011;2470;49.868;8.660;2022-12-18T02:25:00;16.80;;;6.87;;
4909;SDS011;2470;49.868;8.660;2022-12-18T02:27:46;11.67;;;6.60;;
4909;SDS011;2470;49.868;8.660;2022-12-18T02:30:15;28.80;;;8.70;;
4909;SDS011;2470;49.868;8.660;2022-12-18T02:32:50;19.47;;;9.90;;
4909;SDS011;2470;49.868;8.660;2022-12-18T02:35:20;11.73;;;8.43;;
4909;SDS011;2470;49.868;8.660;2022-12-18T02:37:49;10.60;;;6.57;;
4909;SDS011;2470;49.868;8.660;2022-12-18T02:40:15;14.57;;;8.80;;
4909;SDS011;2470;49.868;8.660;2022-12-18T02:42:42;10.70;;;7.40;;
4909;SDS011;2470;49.868;8.660;2022-12-18T02:45:08;15.13;;;7.57;;
4909;SDS011;2470;49.868;8.660;2022-12-18T02:47:36;12.97;;;8.07;;
4909;SDS011;2470;49.868;8.660;2022-12-18T02:53:17;17.10;;;7.60;;
4909;SDS011;2470;49.868;8.660;2022-12-18T02:56:01;12.57;;;7.97;;
4909;SDS011;2470;49.868;8.660;2022-12-18T03:01:28;7.37;;;5.77;;
4909;SDS011;2470;49.868;8.660;2022-12-18T03:04:04;7.60;;;6.30;;
4909;SDS011;2470;49.868;8.660;2022-12-18T03:06:42;19.13;;;7.87;;
4909;SDS011;2470;49.868;8.660;2022-12-18T03:09:17;21.80;;;6.80;;
4909;SDS011;2470;49.868;8.660;2022-12-18T03:11:49;4.60;;;4.27;;
4909;SDS011;2470;49.868;8.660;2022-12-18T03:14:38;12.63;;;7.00;;
4909;SDS011;2470;49.868;8.660;2022-12-18T03:17:07;8.93;;;6.80;;
4909;SDS011;2470;49.868;8.660;2022-12-18T03:19:39;12.60;;;7.03;;
4909;SDS011;2470;49.868;8.660;2022-12-18T03:22:07;14.00;;;7.13;;
4909;SDS011;2470;49.868;8.660;2022-12-18T03:24:34;21.17;;;8.23;;
4909;SDS011;2470;49.868;8.660;2022-12-18T03:27:04;11.17;;;4.20;;
4909;SDS011;2470;49.868;8.660;2022-12-18T03:29:38;10.10;;;6.30;;
4909;SDS011;2470;49.868;8.660;2022-12-18T03:32:12;8.73;;;7.90;;
4909;SDS011;2470;49.868;8.660;2022-12-18T03:34:45;14.57;;;6.00;;
4909;SDS011;2470;49.868;8.660;2022-12-18T03:37:14;17.60;;;6.97;;
4909;SDS011;2470;49.868;8.660;2022-12-18T03:39:39;12.67;;;9.50;;
4909;SDS011;2470;49.868;8.660;2022-12-18T03:47:27;15.33;;;8.33;;
4909;SDS011;2470;49.868;8.660;2022-12-18T03:49:57;16.50;;;6.30;;
4909;SDS011;2470;49.868;8.660;2022-12-18T03:52:33;19.00;;;5.90;;
4909;SDS011;2470;49.868;8.660;2022-12-18T03:55:03;14.27;;;7.60;;
4909;SDS011;2470;49.868;8.660;2022-12-18T03:57:32;15.20;;;7.80;;
4909;SDS011;2470;49.868;8.660;2022-12-18T03:59:59;14.37;;;8.60;;
4909;SDS011;2470;49.868;8.660;2022-12-18T04:02:46;16.10;;;7.20;;
4909;SDS011;2470;49.868;8.660;2022-12-18T04:05:16;20.17;;;7.97;;
4909;SDS011;2470;49.868;8.660;2022-12-18T04:07:43;10.77;;;6.90;;
4909;SDS011;2470;49.868;8.660;2022-12-18T04:10:11;6.37;;;5.70;;
4909;SDS011;2470;49.868;8.660;2022-12-18T04:12:38;6.03;;;5.33;;
4909;SDS011;2470;49.868;8.660;2022-12-18T04:15:04;26.90;;;6.10;;
4909;SDS011;2470;49.868;8.660;2022-12-18T04:17:30;13.43;;;5.90;;
4909;SDS011;2470;49.868;8.660;2022-12-18T04:19:56;8.80;;;6.03;;
4909;SDS011;2470;49.868;8.660;2022-12-18T04:22:21;9.43;;;7.77;;
4909;SDS011;2470;49.868;8.660;2022-12-18T04:24:47;8.87;;;5.03;;
4909;SDS011;2470;49.868;8.660;2022-12-18T04:27:12;9.80;;;7.10;;
4909;SDS011;2470;49.868;8.660;2022-12-18T04:29:38;10.37;;;6.53;;
4909;SDS011;2470;49.868;8.660;2022-12-18T04:32:03;8.17;;;6.17;;
4909;SDS011;2470;49.868;8.660;2022-12-18T04:34:29;12.53;;;7.33;;
4909;SDS011;2470;49.868;8.660;2022-12-18T04:36:55;31.87;;;10.83;;
4909;SDS011;2470;49.868;8.660;2022-12-18T04:39:21;13.50;;;8.30;;
4909;SDS011;2470;49.868;8.660;2022-12-18T04:41:46;13.50;;;4.83;;
4909;SDS011;2470;49.868;8.660;2022-12-18T04:44:12;14.53;;;5.87;;
4909;SDS011;2470;49.868;8.660;2022-12-18T04:46:37;16.97;;;7.67;;
4909;SDS011;2470;49.868;8.660;2022-12-18T04:49:03;9.30;;;6.77;;
4909;SDS011;2470;49.868;8.660;2022-12-18T04:51:28;18.53;;;8.23;;
4909;SDS011;2470;49.868;8.660;2022-12-18T04:53:54;14.77;;;10.00;;
4909;SDS011;2470;49.868;8.660;2022-12-18T04:56:19;8.30;;;6.30;;
4909;SDS011;2470;49.868;8.660;2022-12-18T04:58:45;21.23;;;9.90;;
4909;SDS011;2470;49.868;8.660;2022-12-18T05:01:12;9.90;;;6.30;;
4909;SDS011;2470;49.868;8.660;2022-12-18T05:03:39;17.03;;;7.63;;
4909;SDS011;2470;49.868;8.660;2022-12-18T05:06:05;6.20;;;5.40;;
4909;SDS011;2470;49.868;8.660;2022-12-18T05:08:31;17.40;;;7.77;;
4909;SDS011;2470;49.868;8.660;2022-12-18T05:10:58;20.83;;;9.33;;
4909;SDS011;2470;49.868;8.660;2022-12-18T05:13:31;21.90;;;7.63;;
4909;SDS011;2470;49.868;8.660;2022-12-18T05:15:57;12.00;;;5.57;;
4909;SDS011;2470;49.868;8.660;2022-12-18T05:18:22;11.50;;;6.40;;
4909;SDS011;2470;49.868;8.660;2022-12-18T05:20:49;4.77;;;4.37;;
4909;SDS011;2470;49.868;8.660;2022-12-18T05:23:15;8.43;;;5.50;;
4909;SDS011;2470;49.868;8.660;2022-12-18T05:25:41;13.37;;;6.07;;
4909;SDS011;2470;49.868;8.660;2022-12-18T05:28:07;15.40;;;9.17;;
4909;SDS011;2470;49.868;8.660;2022-12-18T05:30:32;18.90;;;8.57;;
4909;SDS011;2470;49.868;8.660;2022-12-18T05:32:58;29.17;;;8.77;;
4909;SDS011;2470;49.868;8.660;2022-12-18T05:35:23;21.73;;;8.63;;
4909;SDS011;2470;49.868;8.660;2022-12-18T05:37:49;13.50;;;8.20;;
4909;SDS011;2470;49.868;8.660;2022-12-18T05:40:14;16.07;;;9.87;;
4909;SDS011;2470;49.868;8.660;2022-12-18T05:42:40;16.93;;;6.53;;
4909;SDS011;2470;49.868;8.660;2022-12-18T05:45:05;14.13;;;7.10;;
4909;SDS011;2470;49.868;8.660;2022-12-18T05:47:31;17.70;;;9.13;;
4909;SDS011;2470;49.868;8.660;2022-12-18T05:49:57;11.70;;;7.20;;
4909;SDS011;2470;49.868;8.660;2022-12-18T05:52:23;18.43;;;7.63;;
4909;SDS011;2470;49.868;8.660;2022-12-18T05:54:48;9.97;;;6.03;;
4909;SDS011;2470;49.868;8.660;2022-12-18T05:57:14;22.77;;;8.27;;
4909;SDS011;2470;49.868;8.660;2022-12-18T05:59:39;8.67;;;6.20;;
4909;SDS011;2470;49.868;8.660;2022-12-18T06:02:05;14.70;;;7.77;;
4909;SDS011;2470;49.868;8.660;2022-12-18T06:04:30;17.60;;;7.87;;
4909;SDS011;2470;49.868;8.660;2022-12-18T06:06:56;9.90;;;5.87;;
4909;SDS011;2470;49.868;8.660;2022-12-18T06:09:22;8.20;;;7.40;;
4909;SDS011;2470;49.868;8.660;2022-12-18T06:11:47;9.10;;;6.03;;
4909;SDS011;2470;49.868;8.660;2022-12-18T06:14:13;10.30;;;8.27;;
4909;SDS011;2470;49.868;8.660;2022-12-18T06:16:42;9.97;;;7.83;;
4909;SDS011;2470;49.868;8.660;2022-12-18T06:19:07;21.50;;;7.20;;
4909;SDS011;2470;49.868;8.660;2022-12-18T06:21:33;14.07;;;6.77;;
4909;SDS011;2470;49.868;8.660;2022-12-18T06:23:59;10.93;;;7.80;;
4909;SDS011;2470;49.868;8.660;2022-12-18T06:26:25;19.17;;;7.30;;
4909;SDS011;2470;49.868;8.660;2022-12-18T06:28:50;25.60;;;9.93;;
4909;SDS011;2470;49.868;8.660;2022-12-18T06:31:16;21.80;;;11.67;;
4909;SDS011;2470;49.868;8.660;2022-12-18T06:33:41;27.63;;;11.50;;
4909;SDS011;2470;49.868;8.660;2022-12-18T06:36:08;24.07;;;11.37;;
4909;SDS011;2470;49.868;8.660;2022-12-18T06:38:35;15.50;;;9.23;;
4909;SDS011;2470;49.868;8.660;2022-12-18T06:41:10;19.60;;;8.67;;
4909;SDS011;2470;49.868;8.660;2022-12-18T06:43:37;16.33;;;7.47;;
4909;SDS011;2470;49.868;8.660;2022-12-18T06:46:03;11.20;;;7.83;;
4909;SDS011;2470;49.868;8.660;2022-12-18T06:48:30;18.77;;;8.47;;
4909;SDS011;2470;49.868;8.660;2022-12-18T06:50:56;8.47;;;6.33;;
4909;SDS011;2470;49.868;8.660;2022-12-18T06:53:21;24.53;;;10.30;;
4909;SDS011;2470;49.868;8.660;2022-12-18T06:55:47;16.33;;;8.03;;
4909;SDS011;2470;49.868;8.660;2022-12-18T06:58:13;12.00;;;6.10;;
4909;SDS011;2470;49.868;8.660;2022-12-18T07:00:39;23.30;;;9.50;;
4909;SDS011;2470;49.868;8.660;2022-12-18T07:03:04;13.23;;;5.73;;
4909;SDS011;2470;49.868;8.660;2022-12-18T07:05:30;29.53;;;8.00;;
4909;SDS011;2470;49.868;8.660;2022-12-18T07:07:55;14.17;;;9.37;;
4909;SDS011;2470;49.868;8.660;2022-12-18T07:10:21;19.83;;;10.37;;
4909;SDS011;2470;49.868;8.660;2022-12-18T07:12:46;18.33;;;9.40;;
4909;SDS011;2470;49.868;8.660;2022-12-18T07:15:12;8.67;;;6.13;;
4909;SDS011;2470;49.868;8.660;2022-12-18T07:17:37;19.07;;;9.47;;
4909;SDS011;2470;49.868;8.660;2022-12-18T07:20:03;24.33;;;9.07;;
4909;SDS011;2470;49.868;8.660;2022-12-18T07:22:29;17.90;;;9.80;;
4909;SDS011;2470;49.868;8.660;2022-12-18T07:24:54;15.43;;;7.83;;
4909;SDS011;2470;49.868;8.660;2022-12-18T07:27:20;23.50;;;8.60;;
4909;SDS011;2470;49.868;8.660;2022-12-18T07:29:46;9.80;;;4.93;;
4909;SDS011;2470;49.868;8.660;2022-12-18T07:32:12;14.77;;;8.23;;
4909;SDS011;2470;49.868;8.660;2022-12-18T07:34:38;20.10;;;6.73;;
4909;SDS011;2470;49.868;8.660;2022-12-18T07:37:03;14.63;;;7.83;;
4909;SDS011;2470;49.868;8.660;2022-12-18T07:39:29;14.00;;;7.30;;
4909;SDS011;2470;49.868;8.660;2022-12-18T07:41:54;9.73;;;6.07;;
4909;SDS011;2470;49.868;8.660;2022-12-18T07:44:39;9.33;;;4.47;;
4909;SDS011;2470;49.868;8.660;2022-12-18T07:47:04;6.97;;;6.00;;
4909;SDS011;2470;49.868;8.660;2022-12-18T07:49:30;12.50;;;6.70;;
4909;SDS011;2470;49.868;8.660;2022-12-18T07:51:56;18.43;;;6.23;;
4909;SDS011;2470;49.868;8.660;2022-12-18T07:54:22;16.77;;;8.70;;
4909;SDS011;2470;49.868;8.660;2022-12-18T07:56:49;16.40;;;8.50;;
4909;SDS011;2470;49.868;8.660;2022-12-18T07:59:15;17.60;;;9.37;;
4909;SDS011;2470;49.868;8.660;2022-12-18T08:01:41;11.67;;;7.17;;
4909;SDS011;2470;49.868;8.660;2022-12-18T08:04:06;19.30;;;7.90;;
4909;SDS011;2470;49.868;8.660;2022-12-18T08:06:32;27.10;;;9.37;;
4909;SDS011;2470;49.868;8.660;2022-12-18T08:08:57;20.97;;;9.50;;
4909;SDS011;2470;49.868;8.660;2022-12-18T08:11:24;10.37;;;6.87;;
4909;SDS011;2470;49.868;8.660;2022-12-18T08:13:51;17.50;;;6.70;;
4909;SDS011;2470;49.868;8.660;2022-12-18T08:16:16;15.60;;;6.80;;
4909;SDS011;2470;49.868;8.660;2022-12-18T08:18:43;14.07;;;7.80;;
4909;SDS011;2470;49.868;8.660;2022-12-18T08:21:09;25.30;;;8.83;;
4909;SDS011;2470;49.868;8.660;2022-12-18T08:23:40;18.20;;;10.93;;
4909;SDS011;2470;49.868;8.660;2022-12-18T08:26:06;23.30;;;9.40;;
4909;SDS011;2470;49.868;8.660;2022-12-18T08:28:32;14.23;;;7.73;;
4909;SDS011;2470;49.868;8.660;2022-12-18T08:30:58;17.63;;;9.57;;
4909;SDS011;2470;49.868;8.660;2022-12-18T08:33:24;20.97;;;10.67;;
4909;SDS011;2470;49.868;8.660;2022-12-18T08:35:49;18.40;;;9.93;;
4909;SDS011;2470;49.868;8.660;2022-12-18T08:38:15;12.63;;;6.90;;
4909;SDS011;2470;49.868;8.660;2022-12-18T08:40:41;25.80;;;10.17;;
4909;SDS011;2470;49.868;8.660;2022-12-18T08:43:07;29.47;;;11.13;;
4909;SDS011;2470;49.868;8.660;2022-12-18T08:45:53;15.27;;;8.67;;
4909;SDS011;2470;49.868;8.660;2022-12-18T08:48:18;16.10;;;9.63;;
4909;SDS011;2470;49.868;8.660;2022-12-18T08:50:48;18.63;;;8.13;;
4909;SDS011;2470;49.868;8.660;2022-12-18T08:53:21;10.10;;;6.50;;
4909;SDS011;2470;49.868;8.660;2022-12-18T08:55:49;15.70;;;6.07;;
4909;SDS011;2470;49.868;8.660;2022-12-18T08:58:14;21.50;;;9.60;;
4909;SDS011;2470;49.868;8.660;2022-12-18T09:00:41;16.50;;;8.63;;
4909;SDS011;2470;49.868;8.660;2022-12-18T09:03:11;8.10;;;7.20;;
4909;SDS011;2470;49.868;8.660;2022-12-18T09:05:38;13.23;;;7.30;;
4909;SDS011;2470;49.868;8.660;2022-12-18T09:08:04;32.17;;;11.30;;
4909;SDS011;2470;49.868;8.660;2022-12-18T09:10:33;22.30;;;9.83;;
4909;SDS011;2470;49.868;8.660;2022-12-18T09:12:59;27.07;;;8.60;;
4909;SDS011;2470;49.868;8.660;2022-12-18T09:15:24;25.37;;;14.60;;
4909;SDS011;2470;49.868;8.660;2022-12-18T09:17:50;24.53;;;8.83;;
4909;SDS011;2470;49.868;8.660;2022-12-18T09:20:17;18.13;;;9.97;;
4909;SDS011;2470;49.868;8.660;2022-12-18T09:22:43;21.83;;;13.33;;
4909;SDS011;2470;49.868;8.660;2022-12-18T09:25:09;12.50;;;8.60;;
4909;SDS011;2470;49.868;8.660;2022-12-18T09:27:34;21.70;;;10.57;;
4909;SDS011;2470;49.868;8.660;2022-12-18T09:30:00;23.83;;;11.93;;
4909;SDS011;2470;49.868;8.660;2022-12-18T09:32:26;21.73;;;9.83;;
4909;SDS011;2470;49.868;8.660;2022-12-18T09:34:51;21.70;;;8.27;;
4909;SDS011;2470;49.868;8.660;2022-12-18T09:37:17;16.23;;;9.80;;
4909;SDS011;2470;49.868;8.660;2022-12-18T09:39:43;25.80;;;7.80;;
4909;SDS011;2470;49.868;8.660;2022-12-18T09:42:10;16.03;;;7.57;;
4909;SDS011;2470;49.868;8.660;2022-12-18T09:44:43;28.13;;;10.73;;
4909;SDS011;2470;49.868;8.660;2022-12-18T09:47:14;34.97;;;11.50;;
4909;SDS011;2470;49.868;8.660;2022-12-18T09:49:46;14.67;;;9.43;;
4909;SDS011;2470;49.868;8.660;2022-12-18T09:55:09;18.30;;;10.50;;
4909;SDS011;2470;49.868;8.660;2022-12-18T09:57:47;27.10;;;11.80;;
4909;SDS011;2470;49.868;8.660;2022-12-18T10:00:19;33.93;;;10.00;;
4909;SDS011;2470;49.868;8.660;2022-12-18T10:02:47;35.57;;;12.10;;
4909;SDS011;2470;49.868;8.660;2022-12-18T10:05:16;25.77;;;11.07;;
4909;SDS011;2470;49.868;8.660;2022-12-18T10:10:26;20.47;;;10.93;;
4909;SDS011;2470;49.868;8.660;2022-12-18T10:21:11;17.43;;;9.47;;
4909;SDS011;2470;49.868;8.660;2022-12-18T10:23:47;17.07;;;9.00;;
4909;SDS011;2470;49.868;8.660;2022-12-18T10:26:14;18.07;;;8.43;;
4909;SDS011;2470;49.868;8.660;2022-12-18T10:28:40;31.03;;;12.07;;
4909;SDS011;2470;49.868;8.660;2022-12-18T10:31:14;26.47;;;10.27;;
4909;SDS011;2470;49.868;8.660;2022-12-18T10:33:45;22.70;;;10.93;;
4909;SDS011;2470;49.868;8.660;2022-12-18T10:36:11;28.20;;;10.40;;
4909;SDS011;2470;49.868;8.660;2022-12-18T10:38:37;36.80;;;16.47;;
4909;SDS011;2470;49.868;8.660;2022-12-18T10:43:31;56.00;;;18.27;;
4909;SDS011;2470;49.868;8.660;2022-12-18T10:48:36;43.77;;;16.53;;
4909;SDS011;2470;49.868;8.660;2022-12-18T10:51:34;42.47;;;15.33;;
4909;SDS011;2470;49.868;8.660;2022-12-18T10:54:06;44.93;;;15.60;;
4909;SDS011;2470;49.868;8.660;2022-12-18T10:56:39;33.93;;;13.67;;
4909;SDS011;2470;49.868;8.660;2022-12-18T10:59:06;18.67;;;10.63;;
4909;SDS011;2470;49.868;8.660;2022-12-18T11:04:17;23.30;;;10.93;;
4909;SDS011;2470;49.868;8.660;2022-12-18T11:09:22;31.67;;;13.50;;
4909;SDS011;2470;49.868;8.660;2022-12-18T11:11:49;29.23;;;12.33;;
4909;SDS011;2470;49.868;8.660;2022-12-18T11:14:20;24.00;;;11.03;;
4909;SDS011;2470;49.868;8.660;2022-12-18T11:16:48;30.20;;;14.10;;
4909;SDS011;2470;49.868;8.660;2022-12-18T11:22:00;31.47;;;12.10;;
4909;SDS011;2470;49.868;8.660;2022-12-18T11:24:29;30.43;;;12.97;;
4909;SDS011;2470;49.868;8.660;2022-12-18T11:26:57;30.80;;;12.13;;
4909;SDS011;2470;49.868;8.660;2022-12-18T11:29:43;32.53;;;12.43;;
4909;SDS011;2470;49.868;8.660;2022-12-18T11:32:55;26.87;;;10.60;;
4909;SDS011;2470;49.868;8.660;2022-12-18T11:35:24;25.33;;;9.40;;
4909;SDS011;2470;49.868;8.660;2022-12-18T11:38:16;28.47;;;11.17;;
4909;SDS011;2470;49.868;8.660;2022-12-18T11:40:43;22.97;;;11.43;;
4909;SDS011;2470;49.868;8.660;2022-12-18T11:43:17;25.33;;;10.67;;
4909;SDS011;2470;49.868;8.660;2022-12-18T11:45:54;27.07;;;12.67;;
4909;SDS011;2470;49.868;8.660;2022-12-18T11:48:40;32.40;;;13.27;;
4909;SDS011;2470;49.868;8.660;2022-12-18T11:51:14;42.97;;;13.30;;
4909;SDS011;2470;49.868;8.660;2022-12-18T11:53:47;38.23;;;14.43;;
4909;SDS011;2470;49.868;8.660;2022-12-18T11:58:49;23.77;;;10.10;;
4909;SDS011;2470;49.868;8.660;2022-12-18T12:01:33;35.13;;;12.17;;
4909;SDS011;2470;49.868;8.660;2022-12-18T12:09:32;27.07;;;12.80;;
4909;SDS011;2470;49.868;8.660;2022-12-18T12:12:10;29.63;;;12.33;;
4909;SDS011;2470;49.868;8.660;2022-12-18T12:20:49;29.00;;;12.17;;
4909;SDS011;2470;49.868;8.660;2022-12-18T12:23:21;29.27;;;10.67;;
4909;SDS011;2470;49.868;8.660;2022-12-18T12:26:05;30.93;;;13.00;;
4909;SDS011;2470;49.868;8.660;2022-12-18T12:31:31;47.47;;;17.47;;
4909;SDS011;2470;49.868;8.660;2022-12-18T12:34:19;33.77;;;13.13;;
4909;SDS011;2470;49.868;8.660;2022-12-18T12:37:11;28.30;;;11.73;;
4909;SDS011;2470;49.868;8.660;2022-12-18T12:39:47;38.53;;;13.80;;
4909;SDS011;2470;49.868;8.660;2022-12-18T12:42:26;36.63;;;13.60;;
4909;SDS011;2470;49.868;8.660;2022-12-18T12:45:26;25.30;;;10.60;;
4909;SDS011;2470;49.868;8.660;2022-12-18T12:47:59;31.57;;;13.40;;
4909;SDS011;2470;49.868;8.660;2022-12-18T12:50:28;35.90;;;12.90;;
4909;SDS011;2470;49.868;8.660;2022-12-18T12:52:59;32.93;;;13.10;;
4909;SDS011;2470;49.868;8.660;2022-12-18T12:55:30;32.20;;;13.50;;
4909;SDS011;2470;49.868;8.660;2022-12-18T12:58:08;33.87;;;13.20;;
4909;SDS011;2470;49.868;8.660;2022-12-18T13:00:43;45.97;;;15.77;;
4909;SDS011;2470;49.868;8.660;2022-12-18T13:03:36;37.10;;;12.23;;
4909;SDS011;2470;49.868;8.660;2022-12-18T13:09:01;41.07;;;16.60;;
4909;SDS011;2470;49.868;8.660;2022-12-18T13:14:36;20.47;;;11.13;;
4909;SDS011;2470;49.868;8.660;2022-12-18T13:19:44;26.60;;;12.83;;
4909;SDS011;2470;49.868;8.660;2022-12-18T13:22:38;32.40;;;11.70;;
4909;SDS011;2470;49.868;8.660;2022-12-18T13:25:26;41.77;;;17.63;;
4909;SDS011;2470;49.868;8.660;2022-12-18T13:27:57;42.87;;;14.13;;
4909;SDS011;2470;49.868;8.660;2022-12-18T13:45:47;34.23;;;13.80;;
4909;SDS011;2470;49.868;8.660;2022-12-18T13:48:23;48.93;;;17.80;;
4909;SDS011;2470;49.868;8.660;2022-12-18T13:50:58;65.23;;;26.43;;
4909;SDS011;2470;49.868;8.660;2022-12-18T13:53:42;42.43;;;16.10;;
4909;SDS011;2470;49.868;8.660;2022-12-18T13:56:16;80.33;;;27.97;;
4909;SDS011;2470;49.868;8.660;2022-12-18T13:58:42;46.20;;;15.13;;
4909;SDS011;2470;49.868;8.660;2022-12-18T14:01:23;43.57;;;15.43;;
4909;SDS011;2470;49.868;8.660;2022-12-18T14:03:49;40.70;;;15.13;;
4909;SDS011;2470;49.868;8.660;2022-12-18T14:06:15;42.03;;;15.87;;
4909;SDS011;2470;49.868;8.660;2022-12-18T14:08:42;41.13;;;17.27;;
4909;SDS011;2470;49.868;8.660;2022-12-18T14:11:17;49.80;;;20.10;;
4909;SDS011;2470;49.868;8.660;2022-12-18T14:13:46;47.60;;;16.37;;
4909;SDS011;2470;49.868;8.660;2022-12-18T14:16:13;32.97;;;13.47;;
4909;SDS011;2470;49.868;8.660;2022-12-18T14:18:44;35.40;;;15.20;;
4909;SDS011;2470;49.868;8.660;2022-12-18T14:21:23;35.83;;;11.57;;
4909;SDS011;2470;49.868;8.660;2022-12-18T14:26:45;34.07;;;12.37;;
4909;SDS011;2470;49.868;8.660;2022-12-18T14:29:22;35.50;;;11.00;;
4909;SDS011;2470;49.868;8.660;2022-12-18T14:34:44;21.73;;;10.97;;
4909;SDS011;2470;49.868;8.660;2022-12-18T14:37:16;29.43;;;10.47;;
4909;SDS011;2470;49.868;8.660;2022-12-18T14:39:59;28.23;;;11.70;;
4909;SDS011;2470;49.868;8.660;2022-12-18T14:42:26;26.07;;;10.03;;
4909;SDS011;2470;49.868;8.660;2022-12-18T14:47:58;18.23;;;8.90;;
4909;SDS011;2470;49.868;8.660;2022-12-18T14:50:24;28.53;;;11.93;;
4909;SDS011;2470;49.868;8.660;2022-12-18T14:52:51;22.13;;;8.10;;
4909;SDS011;2470;49.868;8.660;2022-12-18T14:55:17;25.93;;;10.40;;
4909;SDS011;2470;49.868;8.660;2022-12-18T14:57:44;38.17;;;9.00;;
4909;SDS011;2470;49.868;8.660;2022-12-18T15:00:20;21.50;;;11.17;;
4909;SDS011;2470;49.868;8.660;2022-12-18T15:02:54;25.20;;;9.97;;
4909;SDS011;2470;49.868;8.660;2022-12-18T15:05:30;21.87;;;8.87;;
4909;SDS011;2470;49.868;8.660;2022-12-18T15:07:58;25.63;;;11.03;;
4909;SDS011;2470;49.868;8.660;2022-12-18T15:10:29;30.80;;;12.10;;
4909;SDS011;2470;49.868;8.660;2022-12-18T15:18:10;27.00;;;11.70;;
4909;SDS011;2470;49.868;8.660;2022-12-18T15:23:14;19.50;;;9.80;;
4909;SDS011;2470;49.868;8.660;2022-12-18T15:25:49;34.97;;;13.07;;
4909;SDS011;2470;49.868;8.660;2022-12-18T15:28:25;34.27;;;10.10;;
4909;SDS011;2470;49.868;8.660;2022-12-18T15:31:02;13.50;;;8.03;;
4909;SDS011;2470;49.868;8.660;2022-12-18T15:33:32;21.60;;;8.57;;
4909;SDS011;2470;49.868;8.660;2022-12-18T15:36:00;20.97;;;9.67;;
4909;SDS011;2470;49.868;8.660;2022-12-18T15:38:27;29.37;;;11.17;;
4909;SDS011;2470;49.868;8.660;2022-12-18T15:40:53;27.83;;;11.97;;
4909;SDS011;2470;49.868;8.660;2022-12-18T15:43:20;22.53;;;9.27;;
4909;SDS011;2470;49.868;8.660;2022-12-18T15:46:03;27.67;;;8.30;;
4909;SDS011;2470;49.868;8.660;2022-12-18T15:48:38;22.33;;;7.73;;
4909;SDS011;2470;49.868;8.660;2022-12-18T15:51:08;22.10;;;9.57;;
4909;SDS011;2470;49.868;8.660;2022-12-18T15:53:40;28.50;;;9.23;;
4909;SDS011;2470;49.868;8.660;2022-12-18T15:56:09;22.43;;;10.40;;
4909;SDS011;2470;49.868;8.660;2022-12-18T15:58:54;14.80;;;7.97;;
4909;SDS011;2470;49.868;8.660;2022-12-18T16:01:20;18.90;;;9.77;;
4909;SDS011;2470;49.868;8.660;2022-12-18T16:03:54;20.27;;;10.73;;
4909;SDS011;2470;49.868;8.660;2022-12-18T16:06:21;23.63;;;8.47;;
4909;SDS011;2470;49.868;8.660;2022-12-18T16:08:47;28.13;;;8.57;;
4909;SDS011;2470;49.868;8.660;2022-12-18T16:14:03;19.20;;;8.30;;
4909;SDS011;2470;49.868;8.660;2022-12-18T16:16:37;19.30;;;10.43;;
4909;SDS011;2470;49.868;8.660;2022-12-18T16:19:03;21.93;;;10.67;;
4909;SDS011;2470;49.868;8.660;2022-12-18T16:21:29;19.10;;;9.00;;
4909;SDS011;2470;49.868;8.660;2022-12-18T16:23:54;17.40;;;9.07;;
4909;SDS011;2470;49.868;8.660;2022-12-18T16:26:20;21.00;;;8.30;;
4909;SDS011;2470;49.868;8.660;2022-12-18T16:28:45;27.50;;;11.23;;
4909;SDS011;2470;49.868;8.660;2022-12-18T16:31:11;19.40;;;9.73;;
4909;SDS011;2470;49.868;8.660;2022-12-18T16:33:36;23.63;;;10.73;;
4909;SDS011;2470;49.868;8.660;2022-12-18T16:36:02;18.33;;;9.20;;
4909;SDS011;2470;49.868;8.660;2022-12-18T16:38:27;26.67;;;10.80;;
4909;SDS011;2470;49.868;8.660;2022-12-18T16:40:53;22.13;;;10.00;;
4909;SDS011;2470;49.868;8.660;2022-12-18T16:43:37;27.33;;;9.97;;
4909;SDS011;2470;49.868;8.660;2022-12-18T16:46:02;20.90;;;11.40;;
4909;SDS011;2470;49.868;8.660;2022-12-18T16:48:28;20.03;;;10.10;;
4909;SDS011;2470;49.868;8.660;2022-12-18T16:50:59;25.00;;;9.27;;
4909;SDS011;2470;49.868;8.660;2022-12-18T16:53:29;19.53;;;10.57;;
4909;SDS011;2470;49.868;8.660;2022-12-18T16:55:57;29.53;;;8.40;;
4909;SDS011;2470;49.868;8.660;2022-12-18T16:58:22;29.13;;;10.33;;
4909;SDS011;2470;49.868;8.660;2022-12-18T17:00:48;23.93;;;11.33;;
4909;SDS011;2470;49.868;8.660;2022-12-18T17:03:13;25.70;;;10.03;;
4909;SDS011;2470;49.868;8.660;2022-12-18T17:05:42;41.17;;;11.47;;
4909;SDS011;2470;49.868;8.660;2022-12-18T17:08:07;22.93;;;11.40;;
4909;SDS011;2470;49.868;8.660;2022-12-18T17:10:36;14.20;;;6.80;;